sensor_id;sensor_type;location;lat;lon;timestamp;pressure;altitude;pressure_sealevel;temperature;humidity
56681;BME280;42558;52.388;13.390;2023-02-14T00:02:11;103306.30;;;4.64;91.54
56681;BME280;42558;52.388;13.390;2023-02-14T00:04:39;103307.70;;;4.60;92.43
56681;BME280;42558;52.388;13.390;2023-02-14T00:07:11;103304.98;;;4.65;92.48
56681;BME280;42558;52.388;13.390;2023-02-14T00:09:41;103306.84;;;4.74;90.85
56681;BME280;42558;52.388;13.390;2023-02-14T00:12:13;103301.83;;;4.76;90.52
56681;BME280;42558;52.388;13.390;2023-02-14T00:14:45;103303.02;;;4.79;90.57
56681;BME280;42558;52.388;13.390;2023-02-14T00:17:31;103298.71;;;4.77;90.64
56681;BME280;42558;52.388;13.390;2023-02-14T00:20:00;103296.55;;;4.80;90.86
56681;BME280;42558;52.388;13.390;2023-02-14T00:22:28;103300.75;;;4.83;90.59
56681;BME280;42558;52.388;13.390;2023-02-14T00:24:56;103301.66;;;4.79;90.41
56681;BME280;42558;52.388;13.390;2023-02-14T00:27:25;103299.12;;;4.77;90.89
56681;BME280;42558;52.388;13.390;2023-02-14T00:29:53;103301.36;;;4.77;90.83
56681;BME280;42558;52.388;13.390;2023-02-14T00:32:24;103302.10;;;4.78;90.89
56681;BME280;42558;52.388;13.390;2023-02-14T00:34:53;103299.52;;;4.78;90.91
56681;BME280;42558;52.388;13.390;2023-02-14T00:37:22;103295.98;;;4.80;90.77
56681;BME280;42558;52.388;13.390;2023-02-14T00:39:50;103292.82;;;4.81;91.07
56681;BME280;42558;52.388;13.390;2023-02-14T00:42:18;103295.75;;;4.88;90.92
56681;BME280;42558;52.388;13.390;2023-02-14T00:44:47;103295.35;;;4.81;90.53
56681;BME280;42558;52.388;13.390;2023-02-14T00:47:15;103297.88;;;4.82;90.63
56681;BME280;42558;52.388;13.390;2023-02-14T00:49:43;103298.21;;;4.73;90.73
56681;BME280;42558;52.388;13.390;2023-02-14T00:52:12;103297.70;;;4.68;90.99
56681;BME280;42558;52.388;13.390;2023-02-14T00:54:41;103300.95;;;4.70;91.07
56681;BME280;42558;52.388;13.390;2023-02-14T00:57:09;103300.77;;;4.74;91.29
56681;BME280;42558;52.388;13.390;2023-02-14T00:59:37;103299.27;;;4.77;90.79
56681;BME280;42558;52.388;13.390;2023-02-14T01:02:06;103291.98;;;4.71;90.68
56681;BME280;42558;52.388;13.390;2023-02-14T01:04:34;103291.45;;;4.69;90.91
56681;BME280;42558;52.388;13.390;2023-02-14T01:07:02;103289.73;;;4.69;91.54
56681;BME280;42558;52.388;13.390;2023-02-14T01:09:31;103289.55;;;4.69;91.61
56681;BME280;42558;52.388;13.390;2023-02-14T01:12:00;103287.27;;;4.67;91.26
56681;BME280;42558;52.388;13.390;2023-02-14T01:14:28;103286.02;;;4.63;90.79
56681;BME280;42558;52.388;13.390;2023-02-14T01:16:56;103282.94;;;4.58;90.69
56681;BME280;42558;52.388;13.390;2023-02-14T01:19:25;103280.31;;;4.53;91.24
56681;BME280;42558;52.388;13.390;2023-02-14T01:21:53;103280.45;;;4.57;92.01
56681;BME280;42558;52.388;13.390;2023-02-14T01:24:22;103274.17;;;4.61;91.53
56681;BME280;42558;52.388;13.390;2023-02-14T01:26:53;103277.48;;;4.59;90.87
56681;BME280;42558;52.388;13.390;2023-02-14T01:29:23;103276.08;;;4.56;90.80
56681;BME280;42558;52.388;13.390;2023-02-14T01:31:51;103276.64;;;4.55;90.04
56681;BME280;42558;52.388;13.390;2023-02-14T01:34:20;103272.96;;;4.50;90.05
56681;BME280;42558;52.388;13.390;2023-02-14T01:36:48;103269.08;;;4.41;90.68
56681;BME280;42558;52.388;13.390;2023-02-14T01:39:17;103266.07;;;4.43;90.43
56681;BME280;42558;52.388;13.390;2023-02-14T01:41:47;103264.20;;;4.48;90.48
56681;BME280;42558;52.388;13.390;2023-02-14T01:46:45;103256.54;;;4.39;90.55
56681;BME280;42558;52.388;13.390;2023-02-14T01:49:20;103251.19;;;4.37;90.97
56681;BME280;42558;52.388;13.390;2023-02-14T01:51:58;103254.88;;;4.37;91.35
56681;BME280;42558;52.388;13.390;2023-02-14T01:54:37;103256.75;;;4.39;91.77
56681;BME280;42558;52.388;13.390;2023-02-14T01:57:13;103257.95;;;4.41;92.32
56681;BME280;42558;52.388;13.390;2023-02-14T01:59:54;103252.33;;;4.36;92.16
56681;BME280;42558;52.388;13.390;2023-02-14T02:02:45;103250.57;;;4.40;92.32
56681;BME280;42558;52.388;13.390;2023-02-14T02:05:15;103250.63;;;4.43;91.93
56681;BME280;42558;52.388;13.390;2023-02-14T02:07:44;103252.54;;;4.39;92.23
56681;BME280;42558;52.388;13.390;2023-02-14T02:10:13;103252.21;;;4.39;92.42
56681;BME280;42558;52.388;13.390;2023-02-14T02:12:42;103250.57;;;4.43;92.27
56681;BME280;42558;52.388;13.390;2023-02-14T02:15:12;103255.05;;;4.49;91.78
56681;BME280;42558;52.388;13.390;2023-02-14T02:18:14;103257.42;;;4.56;91.23
56681;BME280;42558;52.388;13.390;2023-02-14T02:24:06;103262.83;;;4.61;90.87
56681;BME280;42558;52.388;13.390;2023-02-14T02:38:27;103259.23;;;4.40;93.24
56681;BME280;42558;52.388;13.390;2023-02-14T02:41:26;103254.39;;;4.38;93.24
56681;BME280;42558;52.388;13.390;2023-02-14T02:47:41;103255.85;;;4.36;94.47
56681;BME280;42558;52.388;13.390;2023-02-14T02:50:31;103256.88;;;4.30;94.28
56681;BME280;42558;52.388;13.390;2023-02-14T02:53:38;103254.66;;;4.30;94.37
56681;BME280;42558;52.388;13.390;2023-02-14T02:59:09;103254.27;;;4.39;94.54
56681;BME280;42558;52.388;13.390;2023-02-14T03:01:58;103253.42;;;4.48;94.08
56681;BME280;42558;52.388;13.390;2023-02-14T03:04:35;103250.89;;;4.49;92.97
56681;BME280;42558;52.388;13.390;2023-02-14T03:07:37;103253.52;;;4.29;93.36
56681;BME280;42558;52.388;13.390;2023-02-14T03:10:19;103253.48;;;4.11;94.33
56681;BME280;42558;52.388;13.390;2023-02-14T03:16:22;103255.98;;;4.03;95.82
56681;BME280;42558;52.388;13.390;2023-02-14T03:22:07;103254.33;;;4.09;96.88
56681;BME280;42558;52.388;13.390;2023-02-14T03:28:36;103248.44;;;4.33;96.51
56681;BME280;42558;52.388;13.390;2023-02-14T03:34:26;103248.16;;;4.28;95.82
56681;BME280;42558;52.388;13.390;2023-02-14T03:37:12;103243.84;;;4.22;96.48
56681;BME280;42558;52.388;13.390;2023-02-14T03:40:19;103245.21;;;4.28;96.82
56681;BME280;42558;52.388;13.390;2023-02-14T03:43:13;103242.55;;;4.27;96.19
56681;BME280;42558;52.388;13.390;2023-02-14T03:45:56;103246.90;;;4.27;96.43
56681;BME280;42558;52.388;13.390;2023-02-14T03:48:29;103246.27;;;4.32;96.70
56681;BME280;42558;52.388;13.390;2023-02-14T03:51:03;103252.48;;;4.21;96.11
56681;BME280;42558;52.388;13.390;2023-02-14T03:53:40;103253.24;;;4.17;97.02
56681;BME280;42558;52.388;13.390;2023-02-14T03:56:45;103249.87;;;4.19;97.34
56681;BME280;42558;52.388;13.390;2023-02-14T03:59:23;103248.67;;;4.03;97.02
56681;BME280;42558;52.388;13.390;2023-02-14T04:04:34;103237.63;;;3.89;99.03
56681;BME280;42558;52.388;13.390;2023-02-14T04:07:15;103236.50;;;3.95;99.23
56681;BME280;42558;52.388;13.390;2023-02-14T04:09:47;103240.35;;;3.99;99.01
56681;BME280;42558;52.388;13.390;2023-02-14T04:12:18;103242.30;;;3.98;98.77
56681;BME280;42558;52.388;13.390;2023-02-14T04:15:06;103246.64;;;3.97;98.19
56681;BME280;42558;52.388;13.390;2023-02-14T04:17:37;103239.02;;;3.87;97.70
56681;BME280;42558;52.388;13.390;2023-02-14T04:20:27;103243.23;;;3.79;98.15
56681;BME280;42558;52.388;13.390;2023-02-14T04:22:57;103244.05;;;3.81;98.66
56681;BME280;42558;52.388;13.390;2023-02-14T04:25:27;103239.25;;;3.88;99.12
56681;BME280;42558;52.388;13.390;2023-02-14T04:27:57;103243.89;;;3.87;99.03
56681;BME280;42558;52.388;13.390;2023-02-14T04:30:27;103240.54;;;3.84;99.27
56681;BME280;42558;52.388;13.390;2023-02-14T04:32:57;103242.30;;;3.80;99.54
56681;BME280;42558;52.388;13.390;2023-02-14T04:35:27;103240.65;;;3.80;99.89
56681;BME280;42558;52.388;13.390;2023-02-14T04:37:56;103237.16;;;3.79;99.90
56681;BME280;42558;52.388;13.390;2023-02-14T04:40:27;103233.80;;;3.76;100.00
56681;BME280;42558;52.388;13.390;2023-02-14T04:42:58;103236.41;;;3.76;100.00
56681;BME280;42558;52.388;13.390;2023-02-14T04:45:29;103232.02;;;3.76;100.00
56681;BME280;42558;52.388;13.390;2023-02-14T04:47:59;103230.23;;;3.73;100.00
56681;BME280;42558;52.388;13.390;2023-02-14T04:50:29;103230.71;;;3.71;100.00
56681;BME280;42558;52.388;13.390;2023-02-14T04:52:59;103228.39;;;3.76;100.00
56681;BME280;42558;52.388;13.390;2023-02-14T04:55:29;103230.84;;;3.85;100.00
56681;BME280;42558;52.388;13.390;2023-02-14T04:57:58;103220.78;;;4.05;100.00
56681;BME280;42558;52.388;13.390;2023-02-14T05:00:28;103223.08;;;4.15;99.96
56681;BME280;42558;52.388;13.390;2023-02-14T05:02:58;103220.20;;;4.13;99.48
56681;BME280;42558;52.388;13.390;2023-02-14T05:05:28;103221.22;;;4.10;99.35
56681;BME280;42558;52.388;13.390;2023-02-14T05:07:58;103217.96;;;4.04;98.67
56681;BME280;42558;52.388;13.390;2023-02-14T05:10:27;103216.00;;;3.91;98.68
56681;BME280;42558;52.388;13.390;2023-02-14T05:12:57;103216.94;;;3.89;99.74
56681;BME280;42558;52.388;13.390;2023-02-14T05:15:27;103214.82;;;3.94;100.00
56681;BME280;42558;52.388;13.390;2023-02-14T05:17:57;103217.34;;;3.99;100.00
56681;BME280;42558;52.388;13.390;2023-02-14T05:20:30;103216.61;;;4.07;100.00
56681;BME280;42558;52.388;13.390;2023-02-14T05:23:00;103215.20;;;4.09;99.78
56681;BME280;42558;52.388;13.390;2023-02-14T05:25:30;103209.20;;;4.02;98.68
56681;BME280;42558;52.388;13.390;2023-02-14T05:27:57;103208.88;;;3.87;98.73
56681;BME280;42558;52.388;13.390;2023-02-14T05:30:26;103208.33;;;3.80;99.08
56681;BME280;42558;52.388;13.390;2023-02-14T05:32:55;103206.43;;;3.78;99.73
56681;BME280;42558;52.388;13.390;2023-02-14T05:35:23;103205.34;;;3.80;100.00
56681;BME280;42558;52.388;13.390;2023-02-14T05:37:53;103198.72;;;3.80;100.00
56681;BME280;42558;52.388;13.390;2023-02-14T05:40:23;103198.63;;;3.78;99.95
56681;BME280;42558;52.388;13.390;2023-02-14T05:42:51;103201.14;;;3.77;99.96
56681;BME280;42558;52.388;13.390;2023-02-14T05:45:22;103204.48;;;3.82;100.00
56681;BME280;42558;52.388;13.390;2023-02-14T05:47:49;103204.28;;;3.69;99.98
56681;BME280;42558;52.388;13.390;2023-02-14T05:50:18;103207.38;;;3.72;100.00
56681;BME280;42558;52.388;13.390;2023-02-14T05:52:46;103208.44;;;3.73;100.00
56681;BME280;42558;52.388;13.390;2023-02-14T05:55:15;103211.41;;;3.73;100.00
56681;BME280;42558;52.388;13.390;2023-02-14T05:57:43;103210.63;;;3.76;100.00
56681;BME280;42558;52.388;13.390;2023-02-14T06:00:13;103210.78;;;3.87;100.00
56681;BME280;42558;52.388;13.390;2023-02-14T06:02:40;103207.64;;;3.91;100.00
56681;BME280;42558;52.388;13.390;2023-02-14T06:05:09;103202.69;;;3.86;99.89
56681;BME280;42558;52.388;13.390;2023-02-14T06:07:37;103204.05;;;3.76;99.97
56681;BME280;42558;52.388;13.390;2023-02-14T06:10:07;103205.58;;;3.72;100.00
56681;BME280;42558;52.388;13.390;2023-02-14T06:12:38;103205.67;;;3.69;100.00
56681;BME280;42558;52.388;13.390;2023-02-14T06:15:08;103203.86;;;3.70;100.00
56681;BME280;42558;52.388;13.390;2023-02-14T06:17:38;103208.45;;;3.73;100.00
56681;BME280;42558;52.388;13.390;2023-02-14T06:20:08;103212.86;;;3.80;100.00
56681;BME280;42558;52.388;13.390;2023-02-14T06:22:38;103213.28;;;3.79;100.00
56681;BME280;42558;52.388;13.390;2023-02-14T06:25:08;103214.52;;;3.81;100.00
56681;BME280;42558;52.388;13.390;2023-02-14T06:27:38;103218.13;;;3.76;100.00
56681;BME280;42558;52.388;13.390;2023-02-14T06:30:10;103214.73;;;3.73;100.00
56681;BME280;42558;52.388;13.390;2023-02-14T06:32:40;103212.38;;;3.78;100.00
56681;BME280;42558;52.388;13.390;2023-02-14T06:35:10;103216.52;;;3.61;100.00
56681;BME280;42558;52.388;13.390;2023-02-14T06:37:40;103214.80;;;3.57;100.00
56681;BME280;42558;52.388;13.390;2023-02-14T06:40:11;103213.27;;;3.66;100.00
56681;BME280;42558;52.388;13.390;2023-02-14T06:42:41;103216.29;;;3.79;100.00
56681;BME280;42558;52.388;13.390;2023-02-14T06:45:11;103211.20;;;3.85;100.00
56681;BME280;42558;52.388;13.390;2023-02-14T06:47:40;103212.15;;;4.01;100.00
56681;BME280;42558;52.388;13.390;2023-02-14T06:50:10;103212.33;;;4.08;100.00
56681;BME280;42558;52.388;13.390;2023-02-14T06:52:37;103212.39;;;4.04;99.96
56681;BME280;42558;52.388;13.390;2023-02-14T06:55:07;103214.52;;;3.88;99.88
56681;BME280;42558;52.388;13.390;2023-02-14T06:57:34;103214.80;;;3.95;100.00
56681;BME280;42558;52.388;13.390;2023-02-14T07:00:03;103214.70;;;4.09;100.00
56681;BME280;42558;52.388;13.390;2023-02-14T07:02:31;103216.92;;;4.20;99.97
56681;BME280;42558;52.388;13.390;2023-02-14T07:04:59;103220.17;;;4.17;99.53
56681;BME280;42558;52.388;13.390;2023-02-14T07:07:28;103212.14;;;4.08;99.00
56681;BME280;42558;52.388;13.390;2023-02-14T07:09:56;103216.01;;;3.89;99.32
56681;BME280;42558;52.388;13.390;2023-02-14T07:12:25;103211.20;;;3.75;100.00
56681;BME280;42558;52.388;13.390;2023-02-14T07:14:53;103211.36;;;3.70;100.00
56681;BME280;42558;52.388;13.390;2023-02-14T07:17:21;103207.29;;;3.73;100.00
56681;BME280;42558;52.388;13.390;2023-02-14T07:19:50;103205.02;;;3.86;100.00
56681;BME280;42558;52.388;13.390;2023-02-14T07:22:18;103202.90;;;3.95;100.00
56681;BME280;42558;52.388;13.390;2023-02-14T07:24:47;103206.55;;;4.10;100.00
56681;BME280;42558;52.388;13.390;2023-02-14T07:27:16;103209.31;;;4.25;100.00
56681;BME280;42558;52.388;13.390;2023-02-14T07:29:44;103209.63;;;4.16;99.75
56681;BME280;42558;52.388;13.390;2023-02-14T07:32:12;103212.45;;;3.99;99.94
56681;BME280;42558;52.388;13.390;2023-02-14T07:34:41;103212.17;;;3.99;99.90
56681;BME280;42558;52.388;13.390;2023-02-14T07:37:09;103209.90;;;4.04;99.75
56681;BME280;42558;52.388;13.390;2023-02-14T07:39:37;103212.17;;;4.06;99.41
56681;BME280;42558;52.388;13.390;2023-02-14T07:42:08;103208.84;;;4.15;99.83
56681;BME280;42558;52.388;13.390;2023-02-14T07:44:41;103209.89;;;4.21;99.38
56681;BME280;42558;52.388;13.390;2023-02-14T07:47:11;103209.83;;;4.34;99.08
56681;BME280;42558;52.388;13.390;2023-02-14T07:49:41;103210.13;;;4.47;98.33
56681;BME280;42558;52.388;13.390;2023-02-14T07:52:11;103211.09;;;4.48;97.70
56681;BME280;42558;52.388;13.390;2023-02-14T07:54:41;103209.20;;;4.46;98.28
56681;BME280;42558;52.388;13.390;2023-02-14T07:57:09;103209.90;;;4.39;98.68
56681;BME280;42558;52.388;13.390;2023-02-14T07:59:38;103200.59;;;4.43;99.30
56681;BME280;42558;52.388;13.390;2023-02-14T08:02:08;103202.77;;;4.42;98.69
56681;BME280;42558;52.388;13.390;2023-02-14T08:04:38;103204.68;;;4.42;97.89
56681;BME280;42558;52.388;13.390;2023-02-14T08:07:06;103209.67;;;4.41;96.50
56681;BME280;42558;52.388;13.390;2023-02-14T08:09:36;103211.83;;;4.53;96.78
56681;BME280;42558;52.388;13.390;2023-02-14T08:12:08;103209.73;;;4.55;95.74
56681;BME280;42558;52.388;13.390;2023-02-14T08:14:57;103213.78;;;4.47;95.45
56681;BME280;42558;52.388;13.390;2023-02-14T08:17:48;103213.30;;;4.56;96.09
56681;BME280;42558;52.388;13.390;2023-02-14T08:20:17;103218.69;;;4.65;96.35
56681;BME280;42558;52.388;13.390;2023-02-14T08:22:47;103220.61;;;4.70;95.91
56681;BME280;42558;52.388;13.390;2023-02-14T08:25:17;103221.20;;;4.68;94.94
56681;BME280;42558;52.388;13.390;2023-02-14T08:27:47;103220.53;;;4.78;94.48
56681;BME280;42558;52.388;13.390;2023-02-14T08:30:17;103222.67;;;4.92;94.57
56681;BME280;42558;52.388;13.390;2023-02-14T08:32:47;103225.97;;;5.03;94.16
56681;BME280;42558;52.388;13.390;2023-02-14T08:35:17;103227.35;;;4.98;92.13
56681;BME280;42558;52.388;13.390;2023-02-14T08:37:47;103230.78;;;4.84;92.83
56681;BME280;42558;52.388;13.390;2023-02-14T08:40:17;103238.30;;;4.71;93.88
56681;BME280;42558;52.388;13.390;2023-02-14T08:42:48;103233.32;;;4.65;94.41
56681;BME280;42558;52.388;13.390;2023-02-14T08:45:18;103235.64;;;4.75;94.39
56681;BME280;42558;52.388;13.390;2023-02-14T08:47:48;103240.06;;;4.78;94.24
56681;BME280;42558;52.388;13.390;2023-02-14T08:50:18;103239.12;;;4.81;93.96
56681;BME280;42558;52.388;13.390;2023-02-14T08:52:48;103240.80;;;4.83;93.58
56681;BME280;42558;52.388;13.390;2023-02-14T08:55:18;103240.63;;;4.79;93.31
56681;BME280;42558;52.388;13.390;2023-02-14T08:57:48;103238.08;;;4.75;93.61
56681;BME280;42558;52.388;13.390;2023-02-14T09:00:18;103242.95;;;4.68;94.13
56681;BME280;42558;52.388;13.390;2023-02-14T09:02:52;103238.20;;;4.78;94.07
56681;BME280;42558;52.388;13.390;2023-02-14T09:05:22;103238.95;;;4.97;93.69
56681;BME280;42558;52.388;13.390;2023-02-14T09:07:52;103240.61;;;5.03;92.70
56681;BME280;42558;52.388;13.390;2023-02-14T09:10:25;103243.54;;;5.16;92.99
56681;BME280;42558;52.388;13.390;2023-02-14T09:12:55;103244.84;;;5.17;91.85
56681;BME280;42558;52.388;13.390;2023-02-14T09:15:25;103239.81;;;5.13;92.20
56681;BME280;42558;52.388;13.390;2023-02-14T09:17:54;103237.70;;;5.20;92.40
56681;BME280;42558;52.388;13.390;2023-02-14T09:20:25;103240.49;;;5.10;92.55
56681;BME280;42558;52.388;13.390;2023-02-14T09:22:55;103239.97;;;5.01;93.04
56681;BME280;42558;52.388;13.390;2023-02-14T09:25:25;103241.09;;;4.91;93.52
56681;BME280;42558;52.388;13.390;2023-02-14T09:27:56;103243.09;;;4.92;93.90
56681;BME280;42558;52.388;13.390;2023-02-14T09:30:26;103244.27;;;4.92;94.18
56681;BME280;42558;52.388;13.390;2023-02-14T09:32:56;103241.30;;;4.96;93.99
56681;BME280;42558;52.388;13.390;2023-02-14T09:35:25;103240.48;;;5.06;94.13
56681;BME280;42558;52.388;13.390;2023-02-14T09:37:55;103242.29;;;5.16;93.18
56681;BME280;42558;52.388;13.390;2023-02-14T09:40:45;103240.08;;;5.17;92.95
56681;BME280;42558;52.388;13.390;2023-02-14T09:43:29;103243.98;;;5.06;92.73
56681;BME280;42558;52.388;13.390;2023-02-14T09:46:01;103246.82;;;5.00;92.91
56681;BME280;42558;52.388;13.390;2023-02-14T09:48:37;103247.34;;;5.11;93.71
56681;BME280;42558;52.388;13.390;2023-02-14T09:51:18;103247.80;;;5.22;93.44
56681;BME280;42558;52.388;13.390;2023-02-14T09:53:53;103246.35;;;5.21;92.79
56681;BME280;42558;52.388;13.390;2023-02-14T09:57:22;103246.10;;;5.20;92.95
56681;BME280;42558;52.388;13.390;2023-02-14T10:03:08;103252.45;;;5.19;92.44
56681;BME280;42558;52.388;13.390;2023-02-14T10:09:00;103245.50;;;5.14;92.04
56681;BME280;42558;52.388;13.390;2023-02-14T10:11:31;103245.17;;;5.41;92.15
56681;BME280;42558;52.388;13.390;2023-02-14T10:14:26;103242.15;;;5.35;91.19
56681;BME280;42558;52.388;13.390;2023-02-14T10:17:16;103244.98;;;5.27;91.61
56681;BME280;42558;52.388;13.390;2023-02-14T10:19:56;103242.52;;;5.28;90.39
56681;BME280;42558;52.388;13.390;2023-02-14T10:22:42;103244.79;;;5.38;90.35
56681;BME280;42558;52.388;13.390;2023-02-14T10:25:30;103243.84;;;5.51;90.21
56681;BME280;42558;52.388;13.390;2023-02-14T10:28:01;103238.33;;;5.31;88.83
56681;BME280;42558;52.388;13.390;2023-02-14T10:30:37;103237.80;;;5.21;88.80
56681;BME280;42558;52.388;13.390;2023-02-14T10:33:18;103236.60;;;5.31;89.72
56681;BME280;42558;52.388;13.390;2023-02-14T10:36:03;103230.39;;;5.32;88.66
56681;BME280;42558;52.388;13.390;2023-02-14T10:39:08;103231.67;;;5.24;88.28
56681;BME280;42558;52.388;13.390;2023-02-14T10:45:40;103227.52;;;5.38;88.14
56681;BME280;42558;52.388;13.390;2023-02-14T10:56:57;103229.17;;;5.43;87.71
56681;BME280;42558;52.388;13.390;2023-02-14T10:59:54;103230.61;;;5.49;88.20
56681;BME280;42558;52.388;13.390;2023-02-14T11:02:31;103231.34;;;5.45;87.19
56681;BME280;42558;52.388;13.390;2023-02-14T11:05:04;103231.02;;;5.40;88.15
56681;BME280;42558;52.388;13.390;2023-02-14T11:07:33;103227.67;;;5.52;87.80
56681;BME280;42558;52.388;13.390;2023-02-14T11:10:10;103222.23;;;5.61;87.69
56681;BME280;42558;52.388;13.390;2023-02-14T11:12:41;103223.97;;;5.56;87.29
56681;BME280;42558;52.388;13.390;2023-02-14T11:15:31;103219.70;;;5.52;87.28
56681;BME280;42558;52.388;13.390;2023-02-14T11:20:42;103215.56;;;5.51;87.11
56681;BME280;42558;52.388;13.390;2023-02-14T11:23:20;103216.79;;;5.48;86.82
56681;BME280;42558;52.388;13.390;2023-02-14T11:25:54;103218.02;;;5.53;86.88
56681;BME280;42558;52.388;13.390;2023-02-14T11:28:25;103214.34;;;5.30;87.22
56681;BME280;42558;52.388;13.390;2023-02-14T11:30:56;103213.64;;;5.32;87.80
56681;BME280;42558;52.388;13.390;2023-02-14T11:33:42;103211.96;;;5.42;87.83
56681;BME280;42558;52.388;13.390;2023-02-14T11:36:14;103210.33;;;5.46;87.37
56681;BME280;42558;52.388;13.390;2023-02-14T11:39:05;103208.45;;;5.53;87.01
56681;BME280;42558;52.388;13.390;2023-02-14T11:41:52;103203.48;;;5.55;87.10
56681;BME280;42558;52.388;13.390;2023-02-14T11:44:28;103203.54;;;5.46;86.77
56681;BME280;42558;52.388;13.390;2023-02-14T11:47:30;103204.02;;;5.36;87.64
56681;BME280;42558;52.388;13.390;2023-02-14T11:50:14;103203.35;;;5.53;88.00
56681;BME280;42558;52.388;13.390;2023-02-14T11:52:52;103203.05;;;5.65;86.56
56681;BME280;42558;52.388;13.390;2023-02-14T11:55:28;103205.20;;;5.57;86.61
56681;BME280;42558;52.388;13.390;2023-02-14T11:58:02;103201.04;;;5.64;86.94
56681;BME280;42558;52.388;13.390;2023-02-14T12:00:34;103196.89;;;5.77;86.98
56681;BME280;42558;52.388;13.390;2023-02-14T12:03:05;103191.61;;;5.86;86.74
56681;BME280;42558;52.388;13.390;2023-02-14T12:05:46;103184.61;;;5.69;86.40
56681;BME280;42558;52.388;13.390;2023-02-14T12:08:24;103189.52;;;5.57;86.64
56681;BME280;42558;52.388;13.390;2023-02-14T12:11:21;103185.08;;;5.78;87.13
56681;BME280;42558;52.388;13.390;2023-02-14T12:13:54;103179.48;;;5.73;85.43
56681;BME280;42558;52.388;13.390;2023-02-14T12:16:41;103175.29;;;5.51;85.97
56681;BME280;42558;52.388;13.390;2023-02-14T12:22:18;103167.31;;;5.54;86.76
56681;BME280;42558;52.388;13.390;2023-02-14T12:25:15;103168.28;;;5.34;86.89
56681;BME280;42558;52.388;13.390;2023-02-14T12:27:57;103160.43;;;5.46;86.86
56681;BME280;42558;52.388;13.390;2023-02-14T12:30:33;103151.84;;;5.50;86.83
56681;BME280;42558;52.388;13.390;2023-02-14T12:33:18;103149.99;;;5.44;86.77
56681;BME280;42558;52.388;13.390;2023-02-14T12:42:00;103133.16;;;5.40;86.90
56681;BME280;42558;52.388;13.390;2023-02-14T12:45:16;103128.74;;;5.56;87.61
56681;BME280;42558;52.388;13.390;2023-02-14T12:48:24;103128.16;;;5.51;86.07
56681;BME280;42558;52.388;13.390;2023-02-14T13:04:13;103112.52;;;5.44;86.13
56681;BME280;42558;52.388;13.390;2023-02-14T13:07:01;103114.77;;;5.39;86.04
56681;BME280;42558;52.388;13.390;2023-02-14T13:09:58;103108.07;;;5.40;86.88
56681;BME280;42558;52.388;13.390;2023-02-14T13:12:48;103108.91;;;5.42;86.30
56681;BME280;42558;52.388;13.390;2023-02-14T13:18:34;103107.24;;;5.44;86.40
56681;BME280;42558;52.388;13.390;2023-02-14T13:21:10;103104.64;;;5.08;87.21
56681;BME280;42558;52.388;13.390;2023-02-14T13:23:46;103102.48;;;5.26;87.42
56681;BME280;42558;52.388;13.390;2023-02-14T13:26:29;103096.19;;;5.40;87.32
56681;BME280;42558;52.388;13.390;2023-02-14T13:29:10;103095.67;;;5.50;87.05
56681;BME280;42558;52.388;13.390;2023-02-14T13:31:43;103095.78;;;5.32;86.95
56681;BME280;42558;52.388;13.390;2023-02-14T13:34:29;103095.23;;;5.20;87.06
56681;BME280;42558;52.388;13.390;2023-02-14T13:37:05;103091.09;;;5.30;88.23
56681;BME280;42558;52.388;13.390;2023-02-14T13:40:00;103090.74;;;5.54;87.63
56681;BME280;42558;52.388;13.390;2023-02-14T13:51:03;103083.52;;;5.58;86.69
56681;BME280;42558;52.388;13.390;2023-02-14T13:53:41;103079.61;;;5.55;86.94
56681;BME280;42558;52.388;13.390;2023-02-14T13:58:59;103082.52;;;5.47;86.31
56681;BME280;42558;52.388;13.390;2023-02-14T14:01:41;103081.38;;;5.43;87.35
56681;BME280;42558;52.388;13.390;2023-02-14T14:17:41;103078.13;;;5.49;87.19
56681;BME280;42558;52.388;13.390;2023-02-14T14:22:50;103076.91;;;5.32;87.59
56681;BME280;42558;52.388;13.390;2023-02-14T14:25:39;103071.87;;;5.34;87.99
56681;BME280;42558;52.388;13.390;2023-02-14T14:28:22;103066.48;;;5.42;87.53
56681;BME280;42558;52.388;13.390;2023-02-14T14:30:54;103058.13;;;5.33;87.24
56681;BME280;42558;52.388;13.390;2023-02-14T14:33:31;103066.27;;;5.25;87.75
56681;BME280;42558;52.388;13.390;2023-02-14T14:36:05;103070.48;;;5.15;87.57
56681;BME280;42558;52.388;13.390;2023-02-14T14:38:47;103068.86;;;5.12;87.66
56681;BME280;42558;52.388;13.390;2023-02-14T14:41:19;103063.02;;;5.16;87.64
56681;BME280;42558;52.388;13.390;2023-02-14T14:43:49;103063.92;;;5.24;87.36
56681;BME280;42558;52.388;13.390;2023-02-14T14:46:19;103065.56;;;5.27;87.64
56681;BME280;42558;52.388;13.390;2023-02-14T14:48:52;103063.77;;;5.21;86.94
56681;BME280;42558;52.388;13.390;2023-02-14T14:51:29;103062.17;;;5.11;87.60
56681;BME280;42558;52.388;13.390;2023-02-14T14:54:25;103057.94;;;5.20;88.20
56681;BME280;42558;52.388;13.390;2023-02-14T14:56:58;103059.23;;;5.34;88.22
56681;BME280;42558;52.388;13.390;2023-02-14T14:59:34;103055.88;;;5.31;87.60
56681;BME280;42558;52.388;13.390;2023-02-14T15:02:25;103056.48;;;5.27;87.58
56681;BME280;42558;52.388;13.390;2023-02-14T15:04:54;103051.99;;;5.35;88.39
56681;BME280;42558;52.388;13.390;2023-02-14T15:07:32;103052.81;;;5.29;88.03
56681;BME280;42558;52.388;13.390;2023-02-14T15:10:02;103052.20;;;5.13;87.88
56681;BME280;42558;52.388;13.390;2023-02-14T15:12:33;103051.73;;;5.09;88.16
56681;BME280;42558;52.388;13.390;2023-02-14T15:15:22;103049.69;;;5.10;88.88
56681;BME280;42558;52.388;13.390;2023-02-14T15:17:54;103043.73;;;5.09;88.75
56681;BME280;42558;52.388;13.390;2023-02-14T15:20:24;103040.91;;;5.04;88.51
56681;BME280;42558;52.388;13.390;2023-02-14T15:22:55;103044.52;;;5.01;88.75